TimeEST,TemperatureF,Dew PointF,Humidity,Sea Level PressureIn,VisibilityMPH,Wind Direction,Wind SpeedMPH,Gust SpeedMPH,PrecipitationIn,Events,Conditions,WindDirDegrees,DateUTC
12:53 AM,55.0,50.0,83,30.14,10.0,West,10.4,-,N/A,,Clear,260,2012-12-03 05:53:00
1:53 AM,55.0,48.9,80,30.17,10.0,SW,4.6,-,N/A,,Mostly Cloudy,230,2012-12-03 06:53:00
2:53 AM,53.1,48.0,83,30.17,10.0,South,5.8,-,N/A,,Mostly Cloudy,180,2012-12-03 07:53:00
3:53 AM,55.9,48.9,77,30.17,10.0,WSW,4.6,-,N/A,,Partly Cloudy,250,2012-12-03 08:53:00
4:53 AM,53.1,48.0,83,30.17,10.0,Calm,Calm,-,N/A,,Clear,0,2012-12-03 09:53:00
5:53 AM,52.0,48.0,86,30.19,10.0,SSE,3.5,-,N/A,,Clear,160,2012-12-03 10:53:00
6:53 AM,46.9,45.0,93,30.22,8.0,NNW,3.5,-,N/A,,Clear,340,2012-12-03 11:53:00
7:53 AM,45.0,43.0,93,30.23,6.0,Calm,Calm,-,N/A,,Scattered Clouds,0,2012-12-03 12:53:00
8:53 AM,51.1,48.0,89,30.25,7.0,Calm,Calm,-,N/A,,Mostly Cloudy,0,2012-12-03 13:53:00
9:53 AM,57.9,50.0,75,30.26,10.0,Calm,Calm,-,N/A,,Clear,0,2012-12-03 14:53:00
10:53 AM,61.0,52.0,72,30.25,10.0,Calm,Calm,-,N/A,,Mostly Cloudy,0,2012-12-03 15:53:00
11:53 AM,63.0,51.1,65,30.22,10.0,South,5.8,-,N/A,,Overcast,180,2012-12-03 16:53:00
12:53 PM,64.0,52.0,65,30.20,10.0,Calm,Calm,-,N/A,,Overcast,0,2012-12-03 17:53:00
1:53 PM,64.0,51.1,63,30.19,10.0,South,4.6,-,N/A,,Overcast,180,2012-12-03 18:53:00
2:53 PM,64.9,51.1,61,30.19,10.0,Calm,Calm,-,N/A,,Overcast,0,2012-12-03 19:53:00
3:53 PM,64.9,52.0,63,30.19,10.0,Calm,Calm,-,N/A,,Overcast,0,2012-12-03 20:53:00
4:53 PM,60.1,51.1,72,30.20,10.0,Calm,Calm,-,N/A,,Scattered Clouds,0,2012-12-03 21:53:00
5:53 PM,57.9,51.1,78,30.22,10.0,NW,3.5,-,N/A,,Scattered Clouds,310,2012-12-03 22:53:00
6:53 PM,55.0,50.0,83,30.22,10.0,Calm,Calm,-,N/A,,Mostly Cloudy,0,2012-12-03 23:53:00
7:53 PM,54.0,50.0,86,30.22,10.0,Calm,Calm,-,N/A,,Overcast,0,2012-12-04 00:53:00
8:53 PM,53.1,50.0,89,30.22,10.0,WSW,3.5,-,N/A,,Mostly Cloudy,250,2012-12-04 01:53:00
9:53 PM,54.0,50.0,86,30.22,10.0,Calm,Calm,-,N/A,,Mostly Cloudy,0,2012-12-04 02:53:00
10:53 PM,50.0,46.9,89,30.21,9.0,Calm,Calm,-,N/A,,Mostly Cloudy,0,2012-12-04 03:53:00
11:53 PM,50.0,48.0,93,30.21,9.0,Calm,Calm,-,N/A,,Overcast,0,2012-12-04 04:53:00